sensor_id;sensor_type;location;lat;lon;timestamp;pressure;altitude;pressure_sealevel;temperature;humidity
47883;BME280;37739;50.350;7.578;2022-07-29T00:01:01;99596.91;;;22.07;41.75
47883;BME280;37739;50.350;7.578;2022-07-29T00:03:26;99590.91;;;22.01;39.77
47883;BME280;37739;50.350;7.578;2022-07-29T00:05:54;99586.78;;;21.83;39.25
47883;BME280;37739;50.350;7.578;2022-07-29T00:08:20;99583.16;;;21.93;40.07
47883;BME280;37739;50.350;7.578;2022-07-29T00:10:45;99582.13;;;22.06;39.01
47883;BME280;37739;50.350;7.578;2022-07-29T00:13:11;99575.31;;;21.94;39.45
47883;BME280;37739;50.350;7.578;2022-07-29T00:15:40;99576.19;;;21.95;39.65
47883;BME280;37739;50.350;7.578;2022-07-29T00:18:06;99570.78;;;22.07;39.26
47883;BME280;37739;50.350;7.578;2022-07-29T00:20:31;99574.31;;;22.05;39.32
47883;BME280;37739;50.350;7.578;2022-07-29T00:22:59;99564.59;;;22.14;39.18
47883;BME280;37739;50.350;7.578;2022-07-29T00:25:25;99577.56;;;22.21;39.06
47883;BME280;37739;50.350;7.578;2022-07-29T00:27:50;99571.66;;;22.08;39.07
47883;BME280;37739;50.350;7.578;2022-07-29T00:30:15;99568.13;;;22.10;39.00
47883;BME280;37739;50.350;7.578;2022-07-29T00:32:43;99582.25;;;21.97;38.94
47883;BME280;37739;50.350;7.578;2022-07-29T00:35:09;99577.88;;;21.98;38.79
47883;BME280;37739;50.350;7.578;2022-07-29T00:37:53;99573.63;;;21.90;38.64
47883;BME280;37739;50.350;7.578;2022-07-29T00:40:19;99580.53;;;21.96;38.31
47883;BME280;37739;50.350;7.578;2022-07-29T00:42:46;99588.28;;;22.02;38.54
47883;BME280;37739;50.350;7.578;2022-07-29T00:45:14;99588.28;;;22.02;38.06
47883;BME280;37739;50.350;7.578;2022-07-29T00:47:42;99577.84;;;22.01;38.21
47883;BME280;37739;50.350;7.578;2022-07-29T00:50:11;99578.91;;;21.84;37.89
47883;BME280;37739;50.350;7.578;2022-07-29T00:52:38;99580.63;;;21.87;38.43
47883;BME280;37739;50.350;7.578;2022-07-29T00:55:07;99578.13;;;21.79;37.66
47883;BME280;37739;50.350;7.578;2022-07-29T00:57:34;99579.00;;;21.76;38.17
47883;BME280;37739;50.350;7.578;2022-07-29T01:00:00;99573.88;;;21.70;37.91
47883;BME280;37739;50.350;7.578;2022-07-29T01:02:26;99570.28;;;21.81;38.18
47883;BME280;37739;50.350;7.578;2022-07-29T01:04:52;99563.13;;;21.95;38.15
47883;BME280;37739;50.350;7.578;2022-07-29T01:07:18;99564.03;;;21.91;38.12
47883;BME280;37739;50.350;7.578;2022-07-29T01:09:46;99553.53;;;21.94;38.22
47883;BME280;37739;50.350;7.578;2022-07-29T01:12:18;99554.41;;;21.96;37.97
47883;BME280;37739;50.350;7.578;2022-07-29T01:14:44;99557.88;;;21.96;38.33
47883;BME280;37739;50.350;7.578;2022-07-29T01:29:45;99534.53;;;21.84;38.78
47883;BME280;37739;50.350;7.578;2022-07-29T01:32:15;99531.91;;;21.84;38.89
47883;BME280;37739;50.350;7.578;2022-07-29T01:34:53;99522.44;;;21.77;38.94
47883;BME280;37739;50.350;7.578;2022-07-29T01:37:24;99526.84;;;21.73;39.18
47883;BME280;37739;50.350;7.578;2022-07-29T01:39:55;99515.56;;;21.70;39.85
47883;BME280;37739;50.350;7.578;2022-07-29T01:42:34;99515.69;;;21.59;39.93
47883;BME280;37739;50.350;7.578;2022-07-29T01:45:14;99513.94;;;21.61;39.48
47883;BME280;37739;50.350;7.578;2022-07-29T01:47:48;99516.59;;;21.60;39.09
47883;BME280;37739;50.350;7.578;2022-07-29T01:50:23;99511.38;;;21.58;40.00
47883;BME280;37739;50.350;7.578;2022-07-29T01:52:59;99512.31;;;21.54;39.57
47883;BME280;37739;50.350;7.578;2022-07-29T01:55:31;99518.50;;;21.42;39.87
47883;BME280;37739;50.350;7.578;2022-07-29T01:57:58;99520.22;;;21.46;40.15
47883;BME280;37739;50.350;7.578;2022-07-29T02:00:25;99516.00;;;21.33;40.25
47883;BME280;37739;50.350;7.578;2022-07-29T02:02:53;99514.22;;;21.36;40.41
47883;BME280;37739;50.350;7.578;2022-07-29T02:05:21;99515.91;;;21.39;40.16
47883;BME280;37739;50.350;7.578;2022-07-29T02:07:51;99515.03;;;21.45;40.18
47883;BME280;37739;50.350;7.578;2022-07-29T02:10:23;99518.59;;;21.34;40.26
47883;BME280;37739;50.350;7.578;2022-07-29T02:12:52;99510.25;;;21.00;40.84
47883;BME280;37739;50.350;7.578;2022-07-29T02:15:23;99513.00;;;20.86;41.23
47883;BME280;37739;50.350;7.578;2022-07-29T02:17:52;99514.72;;;20.89;41.52
47883;BME280;37739;50.350;7.578;2022-07-29T02:20:23;99519.84;;;20.98;41.04
47883;BME280;37739;50.350;7.578;2022-07-29T02:22:53;99517.19;;;21.01;41.07
47883;BME280;37739;50.350;7.578;2022-07-29T02:25:21;99518.16;;;20.91;41.33
47883;BME280;37739;50.350;7.578;2022-07-29T02:27:49;99515.66;;;20.80;41.63
47883;BME280;37739;50.350;7.578;2022-07-29T02:30:15;99515.63;;;20.85;41.68
47883;BME280;37739;50.350;7.578;2022-07-29T02:32:44;99513.88;;;20.88;41.44
47883;BME280;37739;50.350;7.578;2022-07-29T02:35:13;99517.41;;;20.78;42.33
47883;BME280;37739;50.350;7.578;2022-07-29T02:37:41;99509.66;;;20.69;42.54
47883;BME280;37739;50.350;7.578;2022-07-29T02:40:16;99504.38;;;20.79;42.67
47883;BME280;37739;50.350;7.578;2022-07-29T02:42:43;99514.72;;;20.89;42.23
47883;BME280;37739;50.350;7.578;2022-07-29T02:45:11;99512.97;;;20.91;42.17
47883;BME280;37739;50.350;7.578;2022-07-29T02:47:41;99509.50;;;20.87;42.85
47883;BME280;37739;50.350;7.578;2022-07-29T02:50:34;99502.59;;;20.85;43.66
47883;BME280;37739;50.350;7.578;2022-07-29T02:53:07;99500.00;;;20.83;43.39
47883;BME280;37739;50.350;7.578;2022-07-29T02:55:40;99500.06;;;20.78;44.02
47883;BME280;37739;50.350;7.578;2022-07-29T02:58:23;99501.84;;;20.70;44.60
47883;BME280;37739;50.350;7.578;2022-07-29T03:00:57;99508.88;;;20.64;44.62
47883;BME280;37739;50.350;7.578;2022-07-29T03:03:26;99504.59;;;20.52;44.50
47883;BME280;37739;50.350;7.578;2022-07-29T03:06:00;99508.06;;;20.52;44.85
47883;BME280;37739;50.350;7.578;2022-07-29T03:08:27;99501.16;;;20.45;44.60
47883;BME280;37739;50.350;7.578;2022-07-29T03:10:55;99502.06;;;20.44;44.88
47883;BME280;37739;50.350;7.578;2022-07-29T03:13:21;99498.56;;;20.45;45.03
47883;BME280;37739;50.350;7.578;2022-07-29T03:15:49;99496.81;;;20.46;45.41
47883;BME280;37739;50.350;7.578;2022-07-29T03:18:15;99498.56;;;20.44;45.53
47883;BME280;37739;50.350;7.578;2022-07-29T03:20:40;99502.06;;;20.41;45.67
47883;BME280;37739;50.350;7.578;2022-07-29T03:23:07;99496.91;;;20.35;45.65
47883;BME280;37739;50.350;7.578;2022-07-29T03:25:33;99497.78;;;20.34;45.74
47883;BME280;37739;50.350;7.578;2022-07-29T03:27:58;99503.00;;;20.32;46.08
47883;BME280;37739;50.350;7.578;2022-07-29T03:30:26;99505.63;;;20.28;46.22
47883;BME280;37739;50.350;7.578;2022-07-29T03:32:56;99505.66;;;20.25;46.15
47883;BME280;37739;50.350;7.578;2022-07-29T03:35:21;99508.28;;;20.25;46.33
47883;BME280;37739;50.350;7.578;2022-07-29T03:37:49;99502.22;;;20.21;46.94
47883;BME280;37739;50.350;7.578;2022-07-29T03:40:26;99500.47;;;20.20;47.68
47883;BME280;37739;50.350;7.578;2022-07-29T03:42:55;99503.13;;;20.17;47.37
47883;BME280;37739;50.350;7.578;2022-07-29T03:45:21;99497.97;;;20.05;47.59
47883;BME280;37739;50.350;7.578;2022-07-29T03:47:52;99505.78;;;20.09;48.02
47883;BME280;37739;50.350;7.578;2022-07-29T03:50:20;99503.13;;;20.11;47.64
47883;BME280;37739;50.350;7.578;2022-07-29T03:52:47;99507.47;;;20.13;47.64
47883;BME280;37739;50.350;7.578;2022-07-29T03:55:15;99501.44;;;20.05;48.13
47883;BME280;37739;50.350;7.578;2022-07-29T03:57:45;99491.97;;;19.98;48.22
47883;BME280;37739;50.350;7.578;2022-07-29T04:00:12;99506.69;;;19.97;48.22
47883;BME280;37739;50.350;7.578;2022-07-29T04:02:40;99495.41;;;19.97;48.11
47883;BME280;37739;50.350;7.578;2022-07-29T04:05:14;99500.63;;;19.98;48.10
47883;BME280;37739;50.350;7.578;2022-07-29T04:07:45;99499.78;;;19.96;48.73
47883;BME280;37739;50.350;7.578;2022-07-29T04:10:14;99503.28;;;19.94;48.39
47883;BME280;37739;50.350;7.578;2022-07-29T04:12:40;99505.03;;;19.89;48.42
47883;BME280;37739;50.350;7.578;2022-07-29T04:15:06;99505.03;;;19.87;48.24
47883;BME280;37739;50.350;7.578;2022-07-29T04:17:32;99505.91;;;19.83;48.79
47883;BME280;37739;50.350;7.578;2022-07-29T04:20:02;99509.41;;;19.80;48.72
47883;BME280;37739;50.350;7.578;2022-07-29T04:22:32;99518.09;;;19.79;49.07
47883;BME280;37739;50.350;7.578;2022-07-29T04:24:57;99516.38;;;19.77;49.17
47883;BME280;37739;50.350;7.578;2022-07-29T04:27:22;99518.97;;;19.72;49.51
47883;BME280;37739;50.350;7.578;2022-07-29T04:29:48;99511.16;;;19.66;50.12
47883;BME280;37739;50.350;7.578;2022-07-29T04:32:13;99529.41;;;19.63;50.35
47883;BME280;37739;50.350;7.578;2022-07-29T04:34:38;99516.38;;;19.66;50.05
47883;BME280;37739;50.350;7.578;2022-07-29T04:37:04;99525.94;;;19.67;50.34
47883;BME280;37739;50.350;7.578;2022-07-29T04:39:29;99525.94;;;19.67;50.54
47883;BME280;37739;50.350;7.578;2022-07-29T04:41:59;99526.78;;;19.69;50.65
47883;BME280;37739;50.350;7.578;2022-07-29T04:44:29;99529.38;;;19.74;50.50
47883;BME280;37739;50.350;7.578;2022-07-29T04:46:54;99525.06;;;19.73;50.51
47883;BME280;37739;50.350;7.578;2022-07-29T04:49:20;99518.97;;;19.69;50.75
47883;BME280;37739;50.350;7.578;2022-07-29T04:51:45;99529.38;;;19.71;50.47
47883;BME280;37739;50.350;7.578;2022-07-29T04:54:10;99528.53;;;19.75;50.63
47883;BME280;37739;50.350;7.578;2022-07-29T04:56:35;99538.03;;;19.80;50.40
47883;BME280;37739;50.350;7.578;2022-07-29T04:59:06;99521.50;;;19.89;50.95
47883;BME280;37739;50.350;7.578;2022-07-29T05:01:31;99523.22;;;19.95;49.95
47883;BME280;37739;50.350;7.578;2022-07-29T05:04:00;99536.19;;;20.03;50.38
47883;BME280;37739;50.350;7.578;2022-07-29T05:06:26;99533.59;;;19.99;49.91
47883;BME280;37739;50.350;7.578;2022-07-29T05:08:51;99540.53;;;19.99;50.16
47883;BME280;37739;50.350;7.578;2022-07-29T05:11:16;99543.13;;;20.00;49.91
47883;BME280;37739;50.350;7.578;2022-07-29T05:13:42;99540.53;;;20.02;50.09
47883;BME280;37739;50.350;7.578;2022-07-29T05:16:08;99545.75;;;20.00;50.11
47883;BME280;37739;50.350;7.578;2022-07-29T05:18:35;99550.00;;;20.11;50.03
47883;BME280;37739;50.350;7.578;2022-07-29T05:21:03;99557.81;;;20.17;49.84
47883;BME280;37739;50.350;7.578;2022-07-29T05:23:28;99556.06;;;20.17;49.74
47883;BME280;37739;50.350;7.578;2022-07-29T05:25:58;99550.81;;;20.27;49.98
47883;BME280;37739;50.350;7.578;2022-07-29T05:28:25;99559.47;;;20.29;49.77
47883;BME280;37739;50.350;7.578;2022-07-29T05:30:51;99568.16;;;20.28;49.99
47883;BME280;37739;50.350;7.578;2022-07-29T05:33:16;99567.28;;;20.27;50.85
47883;BME280;37739;50.350;7.578;2022-07-29T05:35:41;99569.84;;;20.30;50.81
47883;BME280;37739;50.350;7.578;2022-07-29T05:38:09;99572.41;;;20.44;50.19
47883;BME280;37739;50.350;7.578;2022-07-29T05:40:34;99576.63;;;20.59;49.58
47883;BME280;37739;50.350;7.578;2022-07-29T05:43:02;99582.72;;;20.56;50.10
47883;BME280;37739;50.350;7.578;2022-07-29T05:45:29;99586.19;;;20.62;49.82
47883;BME280;37739;50.350;7.578;2022-07-29T05:47:54;99589.78;;;20.39;50.23
47883;BME280;37739;50.350;7.578;2022-07-29T05:50:22;99602.00;;;20.26;50.65
47883;BME280;37739;50.350;7.578;2022-07-29T05:52:47;99607.25;;;20.23;50.77
47883;BME280;37739;50.350;7.578;2022-07-29T05:55:15;99615.94;;;20.22;50.53
47883;BME280;37739;50.350;7.578;2022-07-29T05:57:41;99601.06;;;20.38;50.36
47883;BME280;37739;50.350;7.578;2022-07-29T06:00:09;99604.53;;;20.45;50.01
47883;BME280;37739;50.350;7.578;2022-07-29T06:02:34;99606.31;;;20.30;50.60
47883;BME280;37739;50.350;7.578;2022-07-29T06:04:59;99611.47;;;20.44;50.07
47883;BME280;37739;50.350;7.578;2022-07-29T06:07:25;99618.34;;;20.56;49.79
47883;BME280;37739;50.350;7.578;2022-07-29T06:09:50;99618.28;;;20.70;49.58
47883;BME280;37739;50.350;7.578;2022-07-29T06:12:15;99618.34;;;20.64;50.27
47883;BME280;37739;50.350;7.578;2022-07-29T06:14:41;99619.19;;;20.64;49.96
47883;BME280;37739;50.350;7.578;2022-07-29T06:17:06;99616.53;;;20.75;49.75
47883;BME280;37739;50.350;7.578;2022-07-29T06:19:34;99615.69;;;20.70;49.93
47883;BME280;37739;50.350;7.578;2022-07-29T06:22:00;99609.69;;;20.55;50.25
47883;BME280;37739;50.350;7.578;2022-07-29T06:24:25;99607.06;;;20.60;50.13
47883;BME280;37739;50.350;7.578;2022-07-29T06:26:51;99613.97;;;20.64;49.97
47883;BME280;37739;50.350;7.578;2022-07-29T06:29:18;99616.56;;;20.66;50.40
47883;BME280;37739;50.350;7.578;2022-07-29T06:31:44;99621.75;;;20.72;49.51
47883;BME280;37739;50.350;7.578;2022-07-29T06:34:09;99625.25;;;20.68;50.06
47883;BME280;37739;50.350;7.578;2022-07-29T06:36:35;99620.94;;;20.64;50.33
47883;BME280;37739;50.350;7.578;2022-07-29T06:39:07;99624.41;;;20.55;50.71
47883;BME280;37739;50.350;7.578;2022-07-29T06:41:32;99633.19;;;20.45;51.20
47883;BME280;37739;50.350;7.578;2022-07-29T06:44:00;99633.19;;;20.48;50.85
47883;BME280;37739;50.350;7.578;2022-07-29T06:46:26;99635.69;;;20.57;50.80
47883;BME280;37739;50.350;7.578;2022-07-29T06:48:53;99633.97;;;20.62;50.84
47883;BME280;37739;50.350;7.578;2022-07-29T06:51:21;99644.34;;;20.68;49.79
47883;BME280;37739;50.350;7.578;2022-07-29T06:53:46;99640.94;;;20.55;50.28
47883;BME280;37739;50.350;7.578;2022-07-29T06:56:14;99642.75;;;20.41;50.76
47883;BME280;37739;50.350;7.578;2022-07-29T06:58:39;99647.16;;;20.28;50.76
47883;BME280;37739;50.350;7.578;2022-07-29T07:01:06;99650.63;;;20.32;50.56
47883;BME280;37739;50.350;7.578;2022-07-29T07:03:34;99649.75;;;20.31;50.63
47883;BME280;37739;50.350;7.578;2022-07-29T07:05:59;99657.56;;;20.34;50.18
47883;BME280;37739;50.350;7.578;2022-07-29T07:08:28;99658.38;;;20.41;50.34
47883;BME280;37739;50.350;7.578;2022-07-29T07:10:58;99653.97;;;20.54;50.25
47883;BME280;37739;50.350;7.578;2022-07-29T07:13:24;99656.38;;;20.88;49.40
47883;BME280;37739;50.350;7.578;2022-07-29T07:15:53;99664.19;;;20.94;49.36
47883;BME280;37739;50.350;7.578;2022-07-29T07:18:18;99653.75;;;20.94;49.03
47883;BME280;37739;50.350;7.578;2022-07-29T07:20:46;99650.97;;;21.15;48.90
47883;BME280;37739;50.350;7.578;2022-07-29T07:23:12;99655.38;;;21.06;48.63
47883;BME280;37739;50.350;7.578;2022-07-29T07:25:37;99648.34;;;21.14;48.41
47883;BME280;37739;50.350;7.578;2022-07-29T07:28:03;99652.47;;;21.40;48.06
47883;BME280;37739;50.350;7.578;2022-07-29T07:30:28;99650.47;;;21.68;47.00
47883;BME280;37739;50.350;7.578;2022-07-29T07:32:56;99651.25;;;21.76;46.68
47883;BME280;37739;50.350;7.578;2022-07-29T07:35:23;99645.94;;;21.85;46.47
47883;BME280;37739;50.350;7.578;2022-07-29T07:37:49;99644.94;;;21.97;46.36
47883;BME280;37739;50.350;7.578;2022-07-29T07:40:14;99644.91;;;22.00;45.96
47883;BME280;37739;50.350;7.578;2022-07-29T07:42:40;99645.66;;;22.10;46.04
47883;BME280;37739;50.350;7.578;2022-07-29T07:45:07;99640.59;;;22.61;45.31
47883;BME280;37739;50.350;7.578;2022-07-29T07:47:35;99635.69;;;22.99;44.46
47883;BME280;37739;50.350;7.578;2022-07-29T07:50:00;99638.75;;;23.25;43.87
47883;BME280;37739;50.350;7.578;2022-07-29T07:52:25;99637.56;;;22.90;43.07
47883;BME280;37739;50.350;7.578;2022-07-29T07:54:51;99649.22;;;22.69;44.32
47883;BME280;37739;50.350;7.578;2022-07-29T07:57:17;99644.03;;;22.66;44.32
47883;BME280;37739;50.350;7.578;2022-07-29T07:59:46;99645.56;;;22.81;44.13
47883;BME280;37739;50.350;7.578;2022-07-29T08:02:12;99645.44;;;22.87;44.19
47883;BME280;37739;50.350;7.578;2022-07-29T08:04:40;99651.53;;;22.89;44.12
47883;BME280;37739;50.350;7.578;2022-07-29T08:07:06;99653.22;;;22.92;44.32
47883;BME280;37739;50.350;7.578;2022-07-29T08:09:33;99659.16;;;23.05;44.13
47883;BME280;37739;50.350;7.578;2022-07-29T08:11:59;99657.34;;;23.10;44.14
47883;BME280;37739;50.350;7.578;2022-07-29T08:14:28;99652.00;;;23.16;43.71
47883;BME280;37739;50.350;7.578;2022-07-29T08:16:53;99650.34;;;23.10;43.73
47883;BME280;37739;50.350;7.578;2022-07-29T08:19:18;99654.00;;;22.99;43.89
47883;BME280;37739;50.350;7.578;2022-07-29T08:21:46;99650.47;;;23.00;43.86
47883;BME280;37739;50.350;7.578;2022-07-29T08:24:14;99646.88;;;23.10;43.59
47883;BME280;37739;50.350;7.578;2022-07-29T08:26:57;99650.66;;;23.43;42.80
47883;BME280;37739;50.350;7.578;2022-07-29T08:29:23;99644.19;;;23.61;42.64
47883;BME280;37739;50.350;7.578;2022-07-29T08:31:48;99646.59;;;23.74;42.75
47883;BME280;37739;50.350;7.578;2022-07-29T08:34:13;99648.16;;;23.85;42.04
47883;BME280;37739;50.350;7.578;2022-07-29T08:36:43;99647.22;;;23.86;42.05
47883;BME280;37739;50.350;7.578;2022-07-29T08:39:08;99640.66;;;24.09;41.52
47883;BME280;37739;50.350;7.578;2022-07-29T08:41:35;99647.69;;;24.08;41.25
47883;BME280;37739;50.350;7.578;2022-07-29T08:44:00;99647.53;;;24.15;41.16
47883;BME280;37739;50.350;7.578;2022-07-29T08:46:25;99643.31;;;24.07;40.82
47883;BME280;37739;50.350;7.578;2022-07-29T08:48:54;99648.22;;;24.24;40.42
47883;BME280;37739;50.350;7.578;2022-07-29T08:51:26;99639.88;;;24.46;40.15
47883;BME280;37739;50.350;7.578;2022-07-29T08:53:52;99636.25;;;24.53;40.37
47883;BME280;37739;50.350;7.578;2022-07-29T08:56:21;99636.03;;;24.62;40.42
47883;BME280;37739;50.350;7.578;2022-07-29T08:58:47;99635.91;;;24.67;39.94
47883;BME280;37739;50.350;7.578;2022-07-29T09:01:16;99632.09;;;24.82;39.95
47883;BME280;37739;50.350;7.578;2022-07-29T09:03:43;99628.34;;;24.55;39.66
47883;BME280;37739;50.350;7.578;2022-07-29T09:06:15;99624.97;;;24.48;39.92
47883;BME280;37739;50.350;7.578;2022-07-29T09:08:44;99619.34;;;24.65;39.83
47883;BME280;37739;50.350;7.578;2022-07-29T09:11:13;99618.72;;;24.93;39.28
47883;BME280;37739;50.350;7.578;2022-07-29T09:13:39;99626.94;;;25.13;38.97
47883;BME280;37739;50.350;7.578;2022-07-29T09:16:09;99622.41;;;25.20;38.94
47883;BME280;37739;50.350;7.578;2022-07-29T09:18:42;99618.69;;;25.28;38.97
47883;BME280;37739;50.350;7.578;2022-07-29T09:21:14;99620.13;;;25.40;39.21
47883;BME280;37739;50.350;7.578;2022-07-29T09:24:10;99618.13;;;25.50;37.55
47883;BME280;37739;50.350;7.578;2022-07-29T09:26:38;99620.06;;;25.75;38.08
47883;BME280;37739;50.350;7.578;2022-07-29T09:31:43;99613.28;;;25.67;37.15
47883;BME280;37739;50.350;7.578;2022-07-29T09:34:10;99612.03;;;25.48;36.80
47883;BME280;37739;50.350;7.578;2022-07-29T09:36:47;99612.59;;;25.59;37.74
47883;BME280;37739;50.350;7.578;2022-07-29T09:39:13;99607.97;;;25.69;37.83
47883;BME280;37739;50.350;7.578;2022-07-29T09:41:50;99611.97;;;25.51;37.21
47883;BME280;37739;50.350;7.578;2022-07-29T09:44:18;99614.81;;;25.75;37.80
47883;BME280;37739;50.350;7.578;2022-07-29T09:49:23;99606.28;;;25.66;37.62
47883;BME280;37739;50.350;7.578;2022-07-29T09:52:20;99603.81;;;25.93;37.19
47883;BME280;37739;50.350;7.578;2022-07-29T09:54:45;99602.03;;;26.23;37.28
47883;BME280;37739;50.350;7.578;2022-07-29T09:57:28;99602.59;;;26.05;36.58
47883;BME280;37739;50.350;7.578;2022-07-29T10:00:03;99609.28;;;25.84;37.18
47883;BME280;37739;50.350;7.578;2022-07-29T10:02:35;99599.34;;;25.97;36.79
47883;BME280;37739;50.350;7.578;2022-07-29T10:05:05;99603.97;;;26.17;37.65
47883;BME280;37739;50.350;7.578;2022-07-29T10:12:50;99598.59;;;27.05;35.76
47883;BME280;37739;50.350;7.578;2022-07-29T10:15:19;99593.38;;;27.03;36.20
47883;BME280;37739;50.350;7.578;2022-07-29T10:17:49;99599.13;;;27.14;36.02
47883;BME280;37739;50.350;7.578;2022-07-29T10:20:15;99594.06;;;26.83;35.62
47883;BME280;37739;50.350;7.578;2022-07-29T10:22:41;99587.34;;;26.73;36.35
47883;BME280;37739;50.350;7.578;2022-07-29T10:25:08;99593.19;;;27.08;35.95
47883;BME280;37739;50.350;7.578;2022-07-29T10:27:36;99579.72;;;27.17;36.07
47883;BME280;37739;50.350;7.578;2022-07-29T10:30:03;99583.47;;;27.36;35.07
47883;BME280;37739;50.350;7.578;2022-07-29T10:38:10;99587.59;;;27.92;34.76
47883;BME280;37739;50.350;7.578;2022-07-29T10:43:56;99585.06;;;28.13;34.01
47883;BME280;37739;50.350;7.578;2022-07-29T10:46:25;99581.88;;;28.05;34.26
47883;BME280;37739;50.350;7.578;2022-07-29T10:49:14;99581.53;;;28.14;33.55
47883;BME280;37739;50.350;7.578;2022-07-29T10:55:07;99575.13;;;28.86;32.48
47883;BME280;37739;50.350;7.578;2022-07-29T10:57:30;99572.22;;;28.92;33.16
47883;BME280;37739;50.350;7.578;2022-07-29T11:05:00;99566.56;;;29.42;32.84
47883;BME280;37739;50.350;7.578;2022-07-29T11:07:27;99578.25;;;29.36;32.44
47883;BME280;37739;50.350;7.578;2022-07-29T11:15:10;99570.94;;;29.23;31.87
47883;BME280;37739;50.350;7.578;2022-07-29T11:23:01;99566.78;;;29.96;31.33
47883;BME280;37739;50.350;7.578;2022-07-29T11:25:28;99568.63;;;30.51;29.97
47883;BME280;37739;50.350;7.578;2022-07-29T11:28:09;99562.38;;;30.52;29.41
47883;BME280;37739;50.350;7.578;2022-07-29T11:30:56;99561.47;;;30.53;29.76
47883;BME280;37739;50.350;7.578;2022-07-29T11:36:10;99560.41;;;30.00;30.12
47883;BME280;37739;50.350;7.578;2022-07-29T11:38:38;99561.28;;;29.42;31.78
47883;BME280;37739;50.350;7.578;2022-07-29T11:41:23;99558.03;;;28.74;32.46
47883;BME280;37739;50.350;7.578;2022-07-29T11:43:58;99558.16;;;28.49;32.94
47883;BME280;37739;50.350;7.578;2022-07-29T11:49:12;99556.28;;;28.95;32.79
47883;BME280;37739;50.350;7.578;2022-07-29T11:51:37;99554.88;;;29.67;31.57
47883;BME280;37739;50.350;7.578;2022-07-29T11:54:04;99552.78;;;30.13;30.86
47883;BME280;37739;50.350;7.578;2022-07-29T11:56:33;99548.03;;;30.20;31.34
47883;BME280;37739;50.350;7.578;2022-07-29T11:59:06;99557.69;;;30.21;30.82
47883;BME280;37739;50.350;7.578;2022-07-29T12:01:35;99558.19;;;30.29;30.37
47883;BME280;37739;50.350;7.578;2022-07-29T12:04:07;99561.78;;;30.09;30.34
47883;BME280;37739;50.350;7.578;2022-07-29T12:06:35;99563.28;;;29.77;30.85
47883;BME280;37739;50.350;7.578;2022-07-29T12:09:07;99558.25;;;29.70;31.01
47883;BME280;37739;50.350;7.578;2022-07-29T12:11:32;99556.94;;;29.81;31.58
47883;BME280;37739;50.350;7.578;2022-07-29T12:13:58;99557.66;;;29.64;31.72
47883;BME280;37739;50.350;7.578;2022-07-29T12:16:34;99549.16;;;29.57;31.16
47883;BME280;37739;50.350;7.578;2022-07-29T12:19:02;99556.22;;;29.17;32.08
47883;BME280;37739;50.350;7.578;2022-07-29T12:21:47;99554.66;;;29.11;31.96
47883;BME280;37739;50.350;7.578;2022-07-29T12:24:15;99547.09;;;29.04;32.37
47883;BME280;37739;50.350;7.578;2022-07-29T12:26:56;99545.47;;;28.79;32.40
47883;BME280;37739;50.350;7.578;2022-07-29T12:29:24;99542.84;;;28.58;32.90
47883;BME280;37739;50.350;7.578;2022-07-29T12:31:52;99541.25;;;28.54;33.05
47883;BME280;37739;50.350;7.578;2022-07-29T12:34:23;99542.53;;;28.66;32.63
47883;BME280;37739;50.350;7.578;2022-07-29T12:36:49;99537.47;;;29.63;32.00
47883;BME280;37739;50.350;7.578;2022-07-29T12:39:16;99529.63;;;30.55;30.81
47883;BME280;37739;50.350;7.578;2022-07-29T12:41:44;99535.59;;;30.58;30.70
47883;BME280;37739;50.350;7.578;2022-07-29T12:44:12;99530.38;;;30.39;30.06
47883;BME280;37739;50.350;7.578;2022-07-29T12:46:39;99533.59;;;30.27;30.94
47883;BME280;37739;50.350;7.578;2022-07-29T12:49:05;99532.59;;;30.29;30.12
47883;BME280;37739;50.350;7.578;2022-07-29T12:51:37;99530.41;;;30.01;30.72
47883;BME280;37739;50.350;7.578;2022-07-29T12:54:08;99533.81;;;30.41;30.44
47883;BME280;37739;50.350;7.578;2022-07-29T12:56:36;99528.47;;;30.78;29.80
47883;BME280;37739;50.350;7.578;2022-07-29T12:59:14;99529.19;;;30.99;28.64
47883;BME280;37739;50.350;7.578;2022-07-29T13:01:43;99521.53;;;30.75;28.92
47883;BME280;37739;50.350;7.578;2022-07-29T13:07:03;99518.38;;;31.70;28.37
47883;BME280;37739;50.350;7.578;2022-07-29T13:09:41;99511.72;;;31.45;27.90
47883;BME280;37739;50.350;7.578;2022-07-29T13:12:08;99518.75;;;31.46;28.51
47883;BME280;37739;50.350;7.578;2022-07-29T13:14:39;99513.28;;;31.16;28.63
47883;BME280;37739;50.350;7.578;2022-07-29T13:19:43;99506.34;;;32.42;27.76
47883;BME280;37739;50.350;7.578;2022-07-29T13:22:10;99511.03;;;32.83;27.15
47883;BME280;37739;50.350;7.578;2022-07-29T13:24:59;99509.94;;;32.88;25.74
47883;BME280;37739;50.350;7.578;2022-07-29T13:27:35;99513.34;;;33.04;26.32
47883;BME280;37739;50.350;7.578;2022-07-29T13:30:08;99507.72;;;32.80;26.57
47883;BME280;37739;50.350;7.578;2022-07-29T13:32:38;99504.09;;;32.04;27.11
47883;BME280;37739;50.350;7.578;2022-07-29T13:35:08;99509.81;;;32.28;27.39
47883;BME280;37739;50.350;7.578;2022-07-29T13:37:35;99514.44;;;32.25;27.58
47883;BME280;37739;50.350;7.578;2022-07-29T13:40:06;99496.91;;;32.83;26.59
47883;BME280;37739;50.350;7.578;2022-07-29T13:42:34;99506.69;;;32.97;26.61
47883;BME280;37739;50.350;7.578;2022-07-29T13:45:00;99500.88;;;33.49;25.83
47883;BME280;37739;50.350;7.578;2022-07-29T13:47:28;99510.78;;;33.02;26.80
47883;BME280;37739;50.350;7.578;2022-07-29T13:49:54;99508.53;;;32.66;26.74
47883;BME280;37739;50.350;7.578;2022-07-29T13:52:22;99507.88;;;32.46;27.08
47883;BME280;37739;50.350;7.578;2022-07-29T13:54:50;99506.09;;;32.47;26.64
47883;BME280;37739;50.350;7.578;2022-07-29T13:57:17;99506.88;;;32.33;27.26
47883;BME280;37739;50.350;7.578;2022-07-29T13:59:45;99506.66;;;33.13;25.78
47883;BME280;37739;50.350;7.578;2022-07-29T14:02:11;99504.56;;;33.47;26.14
47883;BME280;37739;50.350;7.578;2022-07-29T14:04:37;99503.81;;;33.30;26.07
47883;BME280;37739;50.350;7.578;2022-07-29T14:07:07;99504.56;;;33.75;25.73
47883;BME280;37739;50.350;7.578;2022-07-29T14:09:33;99505.91;;;34.37;24.65